createdAt,value
2022-08-27T00:01:56.558Z,95.50
2022-08-27T00:04:24.909Z,95.20
2022-08-27T00:06:52.872Z,95.30
2022-08-27T00:09:26.872Z,95.90
2022-08-27T00:11:55.763Z,96.30
2022-08-27T00:14:24.323Z,95.90
2022-08-27T00:16:52.260Z,96.00
2022-08-27T00:19:20.151Z,95.90
2022-08-27T00:21:48.752Z,95.70
2022-08-27T00:24:17.674Z,95.50
2022-08-27T00:26:45.934Z,94.90
2022-08-27T00:29:13.636Z,95.30
2022-08-27T00:31:41.437Z,95.50
2022-08-27T00:34:12.906Z,95.70
2022-08-27T00:36:41.890Z,95.40
2022-08-27T00:39:10.093Z,95.70
2022-08-27T00:41:39.311Z,95.90
2022-08-27T00:44:06.958Z,95.00
2022-08-27T00:46:46.112Z,94.60
2022-08-27T00:49:20.527Z,94.60
2022-08-27T00:51:56.351Z,94.80
2022-08-27T00:54:24.792Z,94.80
2022-08-27T00:56:52.993Z,95.40
2022-08-27T00:59:25.468Z,95.60
2022-08-27T01:02:11.235Z,95.60
2022-08-27T01:04:41.227Z,95.30
2022-08-27T01:07:10.408Z,95.30
2022-08-27T01:09:39.237Z,95.30
2022-08-27T01:12:07.812Z,95.50
2022-08-27T01:14:35.993Z,95.10
2022-08-27T01:17:06.742Z,95.50
2022-08-27T01:19:45.780Z,95.20
2022-08-27T01:22:54.572Z,95.50
2022-08-27T01:25:24.155Z,94.80
2022-08-27T01:27:53.331Z,94.30
2022-08-27T01:30:22.320Z,95.60
2022-08-27T01:32:50.807Z,95.10
2022-08-27T01:35:19.515Z,94.10
2022-08-27T01:37:52.228Z,95.40
2022-08-27T01:40:21.613Z,95.20
2022-08-27T01:42:52.164Z,94.30
2022-08-27T01:45:22.704Z,94.60
2022-08-27T01:47:50.246Z,94.10
2022-08-27T01:50:24.562Z,93.60
2022-08-27T01:52:53.184Z,94.80
2022-08-27T01:55:24.299Z,95.40
2022-08-27T01:57:52.794Z,95.80
2022-08-27T02:00:27.194Z,95.80
2022-08-27T02:02:56.725Z,94.80
2022-08-27T02:05:25.232Z,94.10
2022-08-27T02:07:52.950Z,93.20
2022-08-27T02:10:27.675Z,92.40
2022-08-27T02:12:55.690Z,92.60
2022-08-27T02:15:24.691Z,92.10
2022-08-27T02:17:53.184Z,92.20
2022-08-27T02:20:23.017Z,91.80
2022-08-27T02:22:50.848Z,92.00
2022-08-27T02:25:20.832Z,92.10
2022-08-27T02:27:50.040Z,92.20
2022-08-27T02:30:21.525Z,92.50
2022-08-27T02:32:49.997Z,92.60
2022-08-27T02:35:18.958Z,92.70
2022-08-27T02:37:47.159Z,93.60
2022-08-27T02:40:17.875Z,94.50
2022-08-27T02:42:46.643Z,94.50
2022-08-27T02:45:15.759Z,94.60
2022-08-27T02:47:43.826Z,94.70
2022-08-27T02:50:12.826Z,94.50
2022-08-27T02:52:40.805Z,94.80
2022-08-27T02:55:09.324Z,95.00
2022-08-27T02:57:38.037Z,95.00
2022-08-27T03:00:09.445Z,94.90
2022-08-27T03:02:37.744Z,94.30
2022-08-27T03:05:07.449Z,94.20
2022-08-27T03:07:35.749Z,94.80
2022-08-27T03:10:04.230Z,96.30
2022-08-27T03:12:32.430Z,95.30
2022-08-27T03:15:00.443Z,96.40
2022-08-27T03:17:46.459Z,96.40
2022-08-27T03:20:14.283Z,96.80
2022-08-27T03:22:42.732Z,97.00
2022-08-27T03:25:11.668Z,96.80
2022-08-27T03:27:40.549Z,96.50
2022-08-27T03:30:12.629Z,96.10
2022-08-27T03:32:40.402Z,95.50
2022-08-27T03:35:08.440Z,95.20
2022-08-27T03:37:36.194Z,94.70
2022-08-27T03:40:05.388Z,94.20
2022-08-27T03:42:32.866Z,93.00
2022-08-27T03:45:00.463Z,92.60
2022-08-27T03:47:28.075Z,93.30
2022-08-27T03:49:55.594Z,93.80
2022-08-27T03:52:23.164Z,92.60
2022-08-27T03:54:50.847Z,92.50
2022-08-27T03:57:18.347Z,92.40
2022-08-27T03:59:45.908Z,92.50
2022-08-27T04:02:14.967Z,92.60
2022-08-27T04:04:42.628Z,92.70
2022-08-27T04:07:10.912Z,92.50
2022-08-27T04:09:38.291Z,92.30
2022-08-27T04:12:06.193Z,92.30
2022-08-27T04:14:34.236Z,91.70
2022-08-27T04:17:02.648Z,91.00
2022-08-27T04:19:32.788Z,89.60
2022-08-27T04:22:02.713Z,87.00
2022-08-27T04:24:32.159Z,85.40
2022-08-27T04:27:00.956Z,83.20
2022-08-27T04:29:28.861Z,82.30
2022-08-27T04:31:57.229Z,80.70
2022-08-27T04:34:24.951Z,78.00
2022-08-27T04:36:55.196Z,76.70
2022-08-27T04:39:22.681Z,75.70
2022-08-27T04:41:52.288Z,74.00
2022-08-27T04:44:19.677Z,73.50
2022-08-27T04:46:49.348Z,72.90
2022-08-27T04:49:17.866Z,72.40
2022-08-27T04:51:46.101Z,71.60
2022-08-27T04:54:13.926Z,70.70
2022-08-27T04:56:41.546Z,70.50
2022-08-27T04:59:11.152Z,71.00
2022-08-27T05:01:40.996Z,70.60
2022-08-27T05:04:09.266Z,70.50
2022-08-27T05:06:39.316Z,70.00
2022-08-27T05:09:07.271Z,70.30
2022-08-27T05:11:35.180Z,71.60
2022-08-27T05:14:05.170Z,71.60
2022-08-27T05:16:33.941Z,71.10
2022-08-27T05:19:01.662Z,71.20
2022-08-27T05:21:32.473Z,70.50
2022-08-27T05:24:03.066Z,70.30
2022-08-27T05:26:31.486Z,69.10
2022-08-27T05:29:02.793Z,69.70
2022-08-27T05:31:30.925Z,69.60
2022-08-27T05:33:58.612Z,70.20
2022-08-27T05:36:30.391Z,69.20
2022-08-27T05:39:00.220Z,68.80
2022-08-27T05:41:33.936Z,69.20
2022-08-27T05:44:30.208Z,69.30
2022-08-27T05:46:57.431Z,69.60
2022-08-27T05:49:25.226Z,69.40
2022-08-27T05:51:52.706Z,68.60
2022-08-27T05:54:20.386Z,68.70
2022-08-27T05:56:51.910Z,71.30
2022-08-27T05:59:38.357Z,69.70
2022-08-27T06:02:07.419Z,70.70
2022-08-27T06:04:35.146Z,71.70
2022-08-27T06:07:02.992Z,71.70
2022-08-27T06:09:31.208Z,70.50
2022-08-27T06:12:02.826Z,69.70
2022-08-27T06:14:30.752Z,68.50
2022-08-27T06:17:01.127Z,68.80
2022-08-27T06:19:29.108Z,66.70
2022-08-27T06:22:01.070Z,66.60
2022-08-27T06:24:41.710Z,65.50
2022-08-27T06:27:15.471Z,65.40
2022-08-27T06:29:43.752Z,65.10
2022-08-27T06:32:12.388Z,64.60
2022-08-27T06:34:40.091Z,64.40
2022-08-27T06:37:08.426Z,64.90
2022-08-27T06:39:37.510Z,64.50
2022-08-27T06:42:06.671Z,64.20
2022-08-27T06:44:34.751Z,63.50
2022-08-27T06:47:04.226Z,63.10
2022-08-27T06:49:33.802Z,64.00
2022-08-27T06:52:02.033Z,64.50
2022-08-27T06:54:29.542Z,65.60
2022-08-27T06:57:00.647Z,65.00
2022-08-27T06:59:28.698Z,65.40
2022-08-27T07:01:56.649Z,64.80
2022-08-27T07:04:32.423Z,65.20
2022-08-27T07:07:01.831Z,64.50
2022-08-27T07:09:32.499Z,63.30
2022-08-27T07:12:01.409Z,63.50
2022-08-27T07:14:34.201Z,61.80
2022-08-27T07:17:06.076Z,62.30
2022-08-27T07:19:40.968Z,62.70
2022-08-27T07:22:09.172Z,62.40
2022-08-27T07:24:37.843Z,61.60
2022-08-27T07:27:06.228Z,62.10
2022-08-27T07:29:35.913Z,62.00
2022-08-27T07:32:03.946Z,60.90
2022-08-27T07:34:31.466Z,61.20
2022-08-27T07:36:59.027Z,61.40
2022-08-27T07:39:26.710Z,60.40
2022-08-27T07:42:18.066Z,60.60
2022-08-27T07:44:45.667Z,60.90
2022-08-27T07:47:13.827Z,61.20
2022-08-27T07:49:41.546Z,59.60
2022-08-27T07:52:08.958Z,60.90
2022-08-27T07:54:36.548Z,60.10
2022-08-27T07:57:04.963Z,59.90
2022-08-27T07:59:33.550Z,57.80
2022-08-27T08:02:01.498Z,58.10
2022-08-27T08:04:29.861Z,58.60
2022-08-27T08:06:57.461Z,57.90
2022-08-27T08:09:25.433Z,57.60
2022-08-27T08:11:54.370Z,58.40
2022-08-27T08:14:22.354Z,57.00
2022-08-27T08:16:50.138Z,57.30
2022-08-27T08:19:17.670Z,58.20
2022-08-27T08:21:45.233Z,57.70
2022-08-27T08:24:12.706Z,57.90
2022-08-27T08:26:42.436Z,57.70
2022-08-27T08:29:13.361Z,57.50
2022-08-27T08:31:50.121Z,57.00
2022-08-27T08:34:19.936Z,56.40
2022-08-27T08:36:54.469Z,58.20
2022-08-27T08:39:23.307Z,57.90
2022-08-27T08:41:58.026Z,58.30
2022-08-27T08:44:34.760Z,57.60
2022-08-27T08:47:22.257Z,57.20
2022-08-27T08:49:59.831Z,56.10
2022-08-27T08:52:40.910Z,57.00
2022-08-27T08:55:08.980Z,56.50
2022-08-27T08:57:43.746Z,56.20
2022-08-27T09:00:14.042Z,56.90
2022-08-27T09:02:49.289Z,56.70
2022-08-27T09:05:17.708Z,56.30
2022-08-27T09:08:30.989Z,56.70
2022-08-27T09:11:05.840Z,55.50
2022-08-27T09:13:43.946Z,56.20
2022-08-27T09:16:11.893Z,56.00
2022-08-27T09:18:42.259Z,55.50
2022-08-27T09:21:40.317Z,55.80
2022-08-27T09:24:38.072Z,56.40
2022-08-27T09:27:06.721Z,55.80
2022-08-27T09:29:34.475Z,54.60
2022-08-27T09:32:09.071Z,52.10
2022-08-27T09:34:39.720Z,51.30
2022-08-27T09:37:17.919Z,51.30
2022-08-27T09:39:58.265Z,51.60
2022-08-27T09:42:34.752Z,51.80
2022-08-27T09:45:02.426Z,51.90
2022-08-27T09:47:30.090Z,47.50
2022-08-27T09:50:09.249Z,47.20
2022-08-27T09:52:59.562Z,48.70
2022-08-27T09:55:29.563Z,47.90
2022-08-27T09:57:57.499Z,46.20
2022-08-27T10:00:40.482Z,46.80
2022-08-27T10:03:09.590Z,47.10
2022-08-27T10:05:44.638Z,44.70
2022-08-27T10:08:30.882Z,46.90
2022-08-27T10:11:18.972Z,47.60
2022-08-27T10:14:16.678Z,47.90
2022-08-27T10:17:02.369Z,48.10
2022-08-27T10:20:07.230Z,45.90
2022-08-27T10:22:47.562Z,44.80
2022-08-27T10:25:24.038Z,45.60
2022-08-27T10:28:08.331Z,44.90
2022-08-27T10:30:58.914Z,45.50
2022-08-27T10:33:44.900Z,43.80
2022-08-27T10:36:37.189Z,45.30
2022-08-27T10:39:24.028Z,45.00
2022-08-27T10:42:20.390Z,45.20
2022-08-27T10:45:04.044Z,45.00
2022-08-27T10:47:54.745Z,44.70
2022-08-27T10:50:45.100Z,45.20
2022-08-27T10:53:35.620Z,43.40
2022-08-27T10:56:21.933Z,42.70
2022-08-27T10:58:54.859Z,42.40
2022-08-27T11:01:55.990Z,42.20
2022-08-27T11:04:32.393Z,41.00
2022-08-27T11:07:07.659Z,44.40
2022-08-27T11:09:57.109Z,45.10
2022-08-27T11:12:39.084Z,44.10
2022-08-27T11:15:21.564Z,44.10
2022-08-27T11:18:16.588Z,43.70
2022-08-27T11:21:22.959Z,43.70
2022-08-27T11:24:00.002Z,42.30
2022-08-27T11:26:32.255Z,43.00
2022-08-27T11:29:06.747Z,41.70
2022-08-27T11:32:03.002Z,41.50
2022-08-27T11:34:49.502Z,41.50
2022-08-27T11:37:38.295Z,41.00
2022-08-27T11:40:18.526Z,40.40
2022-08-27T11:42:50.183Z,40.00
2022-08-27T11:45:31.582Z,41.10
2022-08-27T11:48:17.449Z,41.40
2022-08-27T11:51:15.940Z,41.40
2022-08-27T11:54:02.218Z,41.50
2022-08-27T11:56:29.702Z,41.90
2022-08-27T11:59:09.132Z,42.10
2022-08-27T12:01:37.790Z,41.60
2022-08-27T12:04:19.692Z,42.40
2022-08-27T12:07:01.973Z,41.60
2022-08-27T12:09:30.552Z,41.90
2022-08-27T12:12:10.102Z,41.50
2022-08-27T12:14:50.148Z,41.90
2022-08-27T12:17:29.038Z,41.80
2022-08-27T12:20:14.960Z,42.10
2022-08-27T12:23:26.582Z,41.80
2022-08-27T12:26:14.652Z,41.30
2022-08-27T12:28:42.212Z,42.20
2022-08-27T12:31:09.945Z,42.10
2022-08-27T12:33:44.008Z,41.90
2022-08-27T12:36:19.382Z,41.80
2022-08-27T12:38:59.250Z,39.80
2022-08-27T12:41:43.935Z,40.30
2022-08-27T12:44:27.571Z,40.10
2022-08-27T12:47:12.603Z,40.40
2022-08-27T12:49:55.125Z,38.60
2022-08-27T12:52:50.772Z,39.30
2022-08-27T12:55:50.015Z,38.30
2022-08-27T12:58:24.368Z,38.20
2022-08-27T13:01:12.601Z,39.60
2022-08-27T13:03:43.733Z,40.00
2022-08-27T13:06:27.847Z,39.80
2022-08-27T13:08:59.688Z,39.10
2022-08-27T13:11:33.095Z,39.10
2022-08-27T13:14:09.570Z,38.20
2022-08-27T13:16:39.975Z,38.30
2022-08-27T13:19:08.629Z,38.30
2022-08-27T13:21:36.627Z,38.60
2022-08-27T13:24:07.048Z,39.30
2022-08-27T13:26:39.126Z,38.40
2022-08-27T13:29:08.560Z,38.60
2022-08-27T13:31:37.380Z,38.10
2022-08-27T13:34:06.771Z,37.60
2022-08-27T13:36:58.649Z,36.30
2022-08-27T13:39:28.691Z,37.20
2022-08-27T13:42:00.304Z,36.80
2022-08-27T13:44:40.854Z,36.10
2022-08-27T13:47:43.723Z,37.70
2022-08-27T13:50:24.574Z,37.90
2022-08-27T13:53:12.810Z,37.20
2022-08-27T13:55:46.334Z,36.70
2022-08-27T13:58:26.169Z,37.10
2022-08-27T14:00:54.099Z,37.80
2022-08-27T14:03:30.249Z,38.30
2022-08-27T14:05:58.493Z,37.70
2022-08-27T14:08:35.010Z,38.80
2022-08-27T14:11:04.649Z,38.30
2022-08-27T14:13:41.790Z,38.50
2022-08-27T14:16:37.872Z,38.60
2022-08-27T14:19:36.216Z,39.00
2022-08-27T14:22:04.914Z,39.30
2022-08-27T14:24:32.572Z,38.60
2022-08-27T14:27:10.963Z,37.90
2022-08-27T14:29:38.548Z,38.50
2022-08-27T14:32:07.997Z,38.80
2022-08-27T14:34:36.169Z,39.90
2022-08-27T14:37:04.997Z,39.20
2022-08-27T14:39:33.000Z,38.50
2022-08-27T14:42:01.768Z,38.90
2022-08-27T14:44:29.423Z,39.10
2022-08-27T14:46:57.178Z,38.80
2022-08-27T14:49:32.088Z,39.00
2022-08-27T14:51:59.643Z,39.30
2022-08-27T14:54:29.056Z,39.10
2022-08-27T14:57:03.366Z,38.90
2022-08-27T14:59:32.454Z,39.40
2022-08-27T15:02:01.794Z,38.50
2022-08-27T15:04:30.382Z,39.60
2022-08-27T15:06:58.404Z,39.60
2022-08-27T15:09:26.040Z,40.00
2022-08-27T15:11:54.444Z,40.20
2022-08-27T15:14:24.913Z,40.30
2022-08-27T15:16:53.263Z,41.30
2022-08-27T15:19:22.726Z,41.40
2022-08-27T15:21:51.862Z,40.80
2022-08-27T15:24:25.795Z,40.70
2022-08-27T15:26:55.433Z,41.10
2022-08-27T15:29:23.056Z,40.90
2022-08-27T15:31:51.491Z,41.60
2022-08-27T15:34:19.247Z,41.50
2022-08-27T15:36:46.913Z,41.40
2022-08-27T15:39:14.576Z,41.20
2022-08-27T15:42:05.127Z,40.80
2022-08-27T15:44:30.945Z,40.60
2022-08-27T15:46:58.610Z,40.80
2022-08-27T15:49:26.346Z,41.30
2022-08-27T15:51:54.067Z,41.60
2022-08-27T15:54:23.240Z,42.00
2022-08-27T15:56:50.768Z,42.30
2022-08-27T15:59:18.512Z,42.20
2022-08-27T16:01:46.314Z,42.50
2022-08-27T16:04:15.652Z,42.60
2022-08-27T16:06:43.188Z,42.50
2022-08-27T16:09:11.127Z,42.50
2022-08-27T16:11:38.818Z,43.80
2022-08-27T16:14:07.787Z,44.00
2022-08-27T16:16:35.386Z,44.00
2022-08-27T16:19:05.123Z,44.20
2022-08-27T16:21:35.267Z,44.60
2022-08-27T16:24:03.731Z,45.20
2022-08-27T16:26:31.391Z,45.20
2022-08-27T16:28:59.044Z,45.30
2022-08-27T16:31:26.580Z,45.10
2022-08-27T16:33:54.928Z,45.30
2022-08-27T16:36:22.564Z,45.00
2022-08-27T16:38:50.937Z,45.20
2022-08-27T16:41:18.682Z,45.30
2022-08-27T16:43:49.282Z,46.20
2022-08-27T16:46:17.559Z,45.20
2022-08-27T16:49:03.412Z,45.20
2022-08-27T16:51:34.819Z,44.30
2022-08-27T16:54:07.437Z,44.30
2022-08-27T16:56:37.735Z,44.40
2022-08-27T16:59:06.789Z,44.30
2022-08-27T17:01:34.760Z,45.20
2022-08-27T17:04:16.340Z,48.00
2022-08-27T17:06:51.916Z,49.90
2022-08-27T17:09:19.842Z,50.80
2022-08-27T17:11:53.787Z,48.90
2022-08-27T17:14:21.939Z,50.10
2022-08-27T17:16:50.521Z,50.70
2022-08-27T17:19:19.198Z,52.10
2022-08-27T17:21:46.800Z,52.40
2022-08-27T17:24:14.957Z,53.00
2022-08-27T17:26:43.039Z,54.10
2022-08-27T17:29:10.616Z,54.80
2022-08-27T17:31:41.117Z,56.40
2022-08-27T17:34:15.755Z,57.00
2022-08-27T17:36:44.561Z,57.80
2022-08-27T17:39:13.038Z,59.40
2022-08-27T17:41:44.122Z,60.70
2022-08-27T17:44:14.642Z,61.60
2022-08-27T17:46:42.356Z,61.50
2022-08-27T17:49:10.360Z,62.00
2022-08-27T17:51:38.051Z,62.00
2022-08-27T17:54:06.526Z,62.50
2022-08-27T17:56:34.718Z,63.40
2022-08-27T17:59:02.444Z,64.60
2022-08-27T18:01:32.851Z,66.50
2022-08-27T18:04:01.520Z,65.80
2022-08-27T18:06:29.581Z,66.70
2022-08-27T18:08:57.426Z,67.30
2022-08-27T18:11:25.757Z,67.50
2022-08-27T18:13:55.920Z,68.20
2022-08-27T18:16:23.598Z,69.20
2022-08-27T18:18:51.476Z,70.30
2022-08-27T18:21:25.279Z,70.10
2022-08-27T18:23:54.245Z,69.20
2022-08-27T18:26:23.641Z,69.80
2022-08-27T18:28:51.815Z,70.20
2022-08-27T18:31:22.356Z,70.30
2022-08-27T18:33:50.287Z,70.40
2022-08-27T18:36:19.556Z,71.60
2022-08-27T18:38:48.040Z,71.70
2022-08-27T18:41:15.676Z,72.10
2022-08-27T18:43:43.196Z,72.60
2022-08-27T18:46:12.821Z,74.20
2022-08-27T18:48:43.597Z,72.20
2022-08-27T18:51:14.550Z,69.90
2022-08-27T18:53:44.739Z,69.80
2022-08-27T18:56:16.894Z,70.30
2022-08-27T18:58:45.433Z,71.90
2022-08-27T19:01:17.691Z,72.60
2022-08-27T19:03:50.969Z,73.20
2022-08-27T19:06:20.847Z,73.60
2022-08-27T19:08:50.157Z,74.10
2022-08-27T19:11:18.602Z,74.30
2022-08-27T19:13:50.754Z,74.80
2022-08-27T19:16:27.436Z,75.00
2022-08-27T19:18:55.315Z,75.50
2022-08-27T19:21:23.476Z,75.70
2022-08-27T19:23:53.126Z,75.60
2022-08-27T19:26:24.076Z,75.30
2022-08-27T19:28:52.682Z,75.30
2022-08-27T19:31:20.520Z,75.40
2022-08-27T19:33:48.171Z,76.50
2022-08-27T19:36:18.115Z,77.00
2022-08-27T19:38:47.116Z,76.10
2022-08-27T19:41:14.802Z,76.20
2022-08-27T19:43:44.747Z,76.90
2022-08-27T19:46:17.032Z,77.00
2022-08-27T19:48:44.955Z,76.80
2022-08-27T19:51:12.601Z,77.20
2022-08-27T19:53:40.595Z,77.30
2022-08-27T19:56:15.614Z,77.20
2022-08-27T19:58:44.089Z,77.00
2022-08-27T20:01:12.797Z,76.70
2022-08-27T20:03:40.760Z,76.90
2022-08-27T20:06:08.804Z,77.20
2022-08-27T20:08:36.489Z,77.40
2022-08-27T20:11:04.079Z,77.30
2022-08-27T20:13:34.658Z,77.90
2022-08-27T20:16:03.049Z,77.30
2022-08-27T20:18:32.129Z,77.40
2022-08-27T20:20:59.676Z,77.20
2022-08-27T20:23:33.644Z,78.10
2022-08-27T20:26:01.523Z,77.50
2022-08-27T20:28:43.767Z,77.90
2022-08-27T20:31:11.706Z,77.70
2022-08-27T20:33:39.559Z,78.10
2022-08-27T20:36:08.880Z,78.50
2022-08-27T20:38:36.520Z,78.90
2022-08-27T20:41:04.634Z,78.80
2022-08-27T20:43:32.319Z,78.50
2022-08-27T20:46:00.391Z,79.20
2022-08-27T20:48:28.739Z,80.20
2022-08-27T20:50:56.435Z,78.60
2022-08-27T20:53:23.915Z,81.10
2022-08-27T20:55:51.570Z,81.80
2022-08-27T20:58:37.855Z,81.90
2022-08-27T21:01:05.965Z,82.30
2022-08-27T21:03:33.784Z,82.20
2022-08-27T21:06:01.299Z,82.70
2022-08-27T21:08:29.000Z,82.40
2022-08-27T21:10:57.917Z,82.60
2022-08-27T21:13:27.124Z,82.90
2022-08-27T21:15:56.580Z,82.70
2022-08-27T21:18:29.554Z,82.50
2022-08-27T21:20:58.955Z,82.60
2022-08-27T21:23:28.157Z,82.30
2022-08-27T21:26:00.519Z,82.30
2022-08-27T21:28:28.840Z,82.10
2022-08-27T21:30:56.440Z,82.20
2022-08-27T21:33:24.682Z,82.60
2022-08-27T21:35:52.519Z,82.60
2022-08-27T21:38:20.598Z,82.60
2022-08-27T21:40:48.124Z,82.80
2022-08-27T21:43:15.680Z,82.70
2022-08-27T21:45:43.474Z,82.40
2022-08-27T21:48:11.970Z,82.40
2022-08-27T21:50:40.190Z,82.40
2022-08-27T21:53:07.900Z,83.00
2022-08-27T21:55:36.311Z,83.40
2022-08-27T21:58:05.519Z,83.00
2022-08-27T22:00:46.395Z,83.00
2022-08-27T22:03:17.686Z,83.60
2022-08-27T22:05:46.420Z,83.70
2022-08-27T22:08:16.378Z,83.20
2022-08-27T22:10:47.619Z,83.50
2022-08-27T22:13:15.600Z,83.40
2022-08-27T22:15:43.401Z,83.00
2022-08-27T22:18:11.333Z,82.70
2022-08-27T22:20:39.719Z,82.90
2022-08-27T22:23:10.029Z,83.40
2022-08-27T22:25:38.838Z,83.40
2022-08-27T22:28:06.857Z,83.40
2022-08-27T22:30:35.008Z,82.80
2022-08-27T22:33:02.453Z,82.70
2022-08-27T22:35:30.498Z,82.50
2022-08-27T22:37:58.562Z,82.60
2022-08-27T22:40:27.867Z,82.80
2022-08-27T22:42:56.781Z,82.40
2022-08-27T22:45:24.860Z,82.20
2022-08-27T22:47:52.420Z,82.50
2022-08-27T22:50:20.700Z,82.40
2022-08-27T22:52:49.662Z,82.30
2022-08-27T22:55:20.422Z,82.40
2022-08-27T22:57:50.016Z,82.40
2022-08-27T23:00:22.296Z,82.70
2022-08-27T23:02:50.360Z,83.40
2022-08-27T23:05:18.574Z,83.30
2022-08-27T23:07:46.826Z,83.90
2022-08-27T23:10:19.861Z,83.90
2022-08-27T23:12:48.295Z,83.50
2022-08-27T23:15:18.337Z,83.70
2022-08-27T23:17:45.960Z,83.70
2022-08-27T23:20:15.221Z,83.90
2022-08-27T23:22:43.336Z,84.40
2022-08-27T23:25:31.021Z,85.00
2022-08-27T23:27:59.891Z,85.10
2022-08-27T23:30:28.505Z,85.60
2022-08-27T23:32:57.332Z,86.20
2022-08-27T23:35:27.632Z,86.10
2022-08-27T23:37:55.864Z,85.90
2022-08-27T23:40:24.008Z,85.40
2022-08-27T23:42:52.597Z,84.90
2022-08-27T23:45:23.515Z,84.60
2022-08-27T23:47:51.206Z,84.50
2022-08-27T23:50:19.196Z,85.30
2022-08-27T23:52:46.917Z,85.20
2022-08-27T23:55:15.031Z,85.90
2022-08-27T23:57:42.973Z,85.70
